createdAt,value
2023-03-20T00:02:49.577Z,-19.91
2023-03-20T00:07:53.885Z,-19.97
2023-03-20T00:12:58.249Z,-19.90
2023-03-20T00:18:02.159Z,-19.76
2023-03-20T00:23:06.290Z,-19.56
2023-03-20T00:28:33.444Z,-19.40
2023-03-20T00:33:38.963Z,-19.48
2023-03-20T00:38:42.767Z,-19.39
2023-03-20T00:43:48.903Z,-19.24
2023-03-20T00:48:53.363Z,-19.23
2023-03-20T00:53:57.407Z,-18.93
2023-03-20T00:59:03.325Z,-18.91
2023-03-20T01:04:19.020Z,-18.78
2023-03-20T01:09:22.753Z,-18.53
2023-03-20T01:14:27.255Z,-18.23
2023-03-20T01:19:31.108Z,-17.91
2023-03-20T01:24:35.126Z,-17.68
2023-03-20T01:29:39.313Z,-17.47
2023-03-20T01:34:44.100Z,-17.26
2023-03-20T01:39:48.165Z,-17.05
2023-03-20T01:44:53.725Z,-16.79
2023-03-20T01:50:23.184Z,-16.54
2023-03-20T01:55:32.696Z,-16.29
2023-03-20T02:00:37.943Z,-16.09
2023-03-20T02:05:47.824Z,-15.63
2023-03-20T02:10:51.933Z,-15.40
2023-03-20T02:16:13.468Z,-15.23
2023-03-20T02:21:52.037Z,-15.02
2023-03-20T02:27:05.236Z,-14.89
2023-03-20T02:32:42.724Z,-14.75
2023-03-20T02:38:23.295Z,-14.41
2023-03-20T02:43:44.600Z,-14.32
2023-03-20T02:49:01.628Z,-14.01
2023-03-20T02:54:44.825Z,-13.48
2023-03-20T03:00:05.969Z,-13.24
2023-03-20T03:05:25.540Z,-13.33
2023-03-20T03:10:49.030Z,-13.27
2023-03-20T03:15:57.392Z,-13.09
2023-03-20T03:21:04.826Z,-13.03
2023-03-20T03:26:23.790Z,-12.90
2023-03-20T03:31:33.738Z,-12.63
2023-03-20T03:37:08.369Z,-11.91
2023-03-20T03:42:28.886Z,-11.33
2023-03-20T03:47:51.273Z,-10.86
2023-03-20T03:53:01.004Z,-10.91
2023-03-20T03:58:49.438Z,-10.25
2023-03-20T04:03:58.621Z,-9.38
2023-03-20T04:09:02.538Z,-9.37
2023-03-20T04:14:07.171Z,-9.26
2023-03-20T04:19:11.203Z,-8.47
2023-03-20T04:24:16.228Z,-7.85
2023-03-20T04:29:20.412Z,-8.04
2023-03-20T04:34:38.266Z,-9.04
2023-03-20T04:40:03.483Z,-9.40
2023-03-20T04:45:09.100Z,-8.51
2023-03-20T04:50:15.091Z,-7.99
2023-03-20T04:55:19.996Z,-8.25
2023-03-20T05:00:23.996Z,-8.61
2023-03-20T05:05:28.064Z,-7.95
2023-03-20T05:10:32.535Z,-7.08
2023-03-20T05:15:43.992Z,-6.40
2023-03-20T05:20:59.680Z,-6.75
2023-03-20T05:26:26.032Z,-7.62
2023-03-20T05:31:56.372Z,-8.92
2023-03-20T05:37:20.619Z,-9.56
2023-03-20T05:42:44.065Z,-9.26
2023-03-20T05:48:06.948Z,-8.03
2023-03-20T05:53:25.722Z,-8.07
2023-03-20T05:59:08.209Z,-8.10
2023-03-20T06:04:38.287Z,-7.77
2023-03-20T06:10:00.907Z,-7.59
2023-03-20T06:15:07.268Z,-7.18
2023-03-20T06:20:16.279Z,-7.41
2023-03-20T06:25:21.938Z,-8.31
2023-03-20T06:30:27.154Z,-8.80
2023-03-20T06:35:32.655Z,-8.98
2023-03-20T06:40:36.958Z,-9.59
2023-03-20T06:45:41.345Z,-8.78
2023-03-20T06:50:54.849Z,-8.36
2023-03-20T06:56:03.823Z,-8.01
2023-03-20T07:01:11.483Z,-6.63
2023-03-20T07:06:16.018Z,-5.74
2023-03-20T07:11:20.340Z,-6.70
2023-03-20T07:16:25.287Z,-7.18
2023-03-20T07:21:30.618Z,-7.77
2023-03-20T07:26:36.325Z,-8.05
2023-03-20T07:31:40.603Z,-8.39
2023-03-20T07:36:52.612Z,-7.76
2023-03-20T07:41:58.706Z,-7.79
2023-03-20T07:47:14.568Z,-6.64
2023-03-20T07:52:18.640Z,-6.60
2023-03-20T07:57:22.662Z,-6.68
2023-03-20T08:02:26.727Z,-7.53
2023-03-20T08:07:30.798Z,-7.64
2023-03-20T08:12:34.790Z,-7.58
2023-03-20T08:17:38.945Z,-7.54
2023-03-20T08:22:43.491Z,-7.89
2023-03-20T08:27:47.477Z,-7.93
2023-03-20T08:32:51.640Z,-7.58
2023-03-20T08:37:55.642Z,-7.67
2023-03-20T08:42:59.933Z,-8.01
2023-03-20T08:48:04.477Z,-8.42
2023-03-20T08:53:08.822Z,-8.69
2023-03-20T08:58:12.572Z,-8.69
2023-03-20T09:03:19.618Z,-8.90
2023-03-20T09:08:23.458Z,-8.75
2023-03-20T09:13:28.131Z,-8.69
2023-03-20T09:18:32.075Z,-8.47
2023-03-20T09:23:36.083Z,-8.41
2023-03-20T09:28:40.168Z,-8.42
2023-03-20T09:33:44.263Z,-8.36
2023-03-20T09:38:49.296Z,-8.42
2023-03-20T09:44:10.300Z,-8.80
2023-03-20T09:49:34.588Z,-8.29
2023-03-20T09:54:53.548Z,-8.33
2023-03-20T10:00:11.336Z,-8.11
2023-03-20T10:05:26.900Z,-8.19
2023-03-20T10:11:03.160Z,-8.34
2023-03-20T10:16:13.602Z,-8.43
2023-03-20T10:21:50.187Z,-8.42
2023-03-20T10:26:56.587Z,-8.55
2023-03-20T10:32:45.065Z,-8.64
2023-03-20T10:38:01.125Z,-8.72
2023-03-20T10:43:17.552Z,-9.12
2023-03-20T10:48:36.830Z,-8.69
2023-03-20T10:54:05.025Z,-8.72
2023-03-20T10:59:29.333Z,-8.73
2023-03-20T11:04:33.315Z,-8.71
2023-03-20T11:09:37.448Z,-8.71
2023-03-20T11:14:41.396Z,-8.76
2023-03-20T11:19:45.467Z,-8.78
2023-03-20T11:24:55.189Z,-8.89
2023-03-20T11:30:02.144Z,-8.86
2023-03-20T11:35:32.283Z,-8.77
2023-03-20T11:40:37.161Z,-8.82
2023-03-20T11:45:43.378Z,-8.91
2023-03-20T11:51:01.879Z,-8.99
2023-03-20T11:56:14.036Z,-9.11
2023-03-20T12:01:18.221Z,-9.27
2023-03-20T12:06:54.424Z,-9.29
2023-03-20T12:12:06.087Z,-9.39
2023-03-20T12:17:40.556Z,-9.51
2023-03-20T12:23:11.763Z,-9.72
2023-03-20T12:28:27.139Z,-9.75
2023-03-20T12:34:07.970Z,-9.90
2023-03-20T12:39:30.324Z,-10.09
2023-03-20T12:44:52.388Z,-10.27
2023-03-20T12:50:21.224Z,-10.35
2023-03-20T12:55:40.194Z,-10.41
2023-03-20T13:00:53.383Z,-10.56
2023-03-20T13:06:37.022Z,-10.75
2023-03-20T13:12:09.340Z,-10.92
2023-03-20T13:17:40.254Z,-11.06
2023-03-20T13:23:15.146Z,-11.20
2023-03-20T13:28:37.126Z,-11.35
2023-03-20T13:33:55.979Z,-11.64
2023-03-20T13:39:14.849Z,-11.77
2023-03-20T13:44:21.806Z,-11.85
2023-03-20T13:49:53.002Z,-11.98
2023-03-20T13:54:59.616Z,-12.14
2023-03-20T14:00:29.404Z,-12.21
2023-03-20T14:05:42.621Z,-12.37
2023-03-20T14:10:46.530Z,-12.47
2023-03-20T14:15:56.275Z,-12.55
2023-03-20T14:21:12.383Z,-12.66
2023-03-20T14:26:22.142Z,-12.80
2023-03-20T14:31:33.860Z,-12.95
2023-03-20T14:37:01.008Z,-13.00
2023-03-20T14:42:37.847Z,-13.01
2023-03-20T14:47:50.275Z,-13.13
2023-03-20T14:53:22.250Z,-13.25
2023-03-20T14:58:31.816Z,-13.31
2023-03-20T15:03:41.431Z,-13.38
2023-03-20T15:08:51.061Z,-13.57
2023-03-20T15:13:56.803Z,-13.87
2023-03-20T15:19:01.970Z,-13.50
2023-03-20T15:24:08.398Z,-13.54
2023-03-20T15:29:16.183Z,-13.73
2023-03-20T15:34:24.148Z,-13.83
2023-03-20T15:39:30.703Z,-13.88
2023-03-20T15:44:43.681Z,-13.91
2023-03-20T15:49:52.821Z,-13.94
2023-03-20T15:54:59.254Z,-14.10
2023-03-20T16:00:08.823Z,-14.00
2023-03-20T16:05:17.387Z,-14.05
2023-03-20T16:10:21.490Z,-14.16
2023-03-20T16:15:28.484Z,-14.18
2023-03-20T16:20:39.869Z,-14.27
2023-03-20T16:25:43.704Z,-14.32
2023-03-20T16:30:47.911Z,-14.36
2023-03-20T16:35:52.616Z,-14.37
2023-03-20T16:41:32.872Z,-14.32
2023-03-20T16:46:36.828Z,-14.36
2023-03-20T16:51:45.083Z,-14.39
2023-03-20T16:56:55.131Z,-14.22
2023-03-20T17:02:02.380Z,-14.22
2023-03-20T17:07:26.251Z,-14.41
2023-03-20T17:12:33.626Z,-14.32
2023-03-20T17:17:38.703Z,-14.47
2023-03-20T17:22:42.656Z,-14.30
2023-03-20T17:27:47.050Z,-14.29
2023-03-20T17:32:51.238Z,-14.30
2023-03-20T17:37:55.045Z,-14.27
2023-03-20T17:42:58.943Z,-14.65
2023-03-20T17:48:02.746Z,-14.15
2023-03-20T17:53:06.835Z,-14.15
2023-03-20T17:58:23.352Z,-14.07
2023-03-20T18:03:27.624Z,-13.91
2023-03-20T18:08:32.113Z,-13.73
2023-03-20T18:13:35.962Z,-13.61
2023-03-20T18:18:40.032Z,-13.51
2023-03-20T18:23:44.965Z,-13.41
2023-03-20T18:28:52.125Z,-13.27
2023-03-20T18:33:55.986Z,-13.13
2023-03-20T18:39:00.209Z,-13.02
2023-03-20T18:44:03.999Z,-12.82
2023-03-20T18:49:08.087Z,-12.65
2023-03-20T18:54:12.380Z,-12.58
2023-03-20T18:59:16.859Z,-12.51
2023-03-20T19:04:21.029Z,-12.42
2023-03-20T19:09:25.094Z,-12.31
2023-03-20T19:14:29.001Z,-12.18
2023-03-20T19:19:32.878Z,-12.06
2023-03-20T19:24:37.078Z,-11.90
2023-03-20T19:29:41.341Z,-11.89
2023-03-20T19:35:35.292Z,-11.67
2023-03-20T19:40:26.378Z,-11.53
2023-03-20T19:45:34.381Z,-11.43
2023-03-20T19:50:41.676Z,-11.45
2023-03-20T19:55:48.083Z,-11.30
2023-03-20T20:00:57.839Z,-11.24
2023-03-20T20:06:04.682Z,-11.26
2023-03-20T20:11:10.557Z,-11.17
2023-03-20T20:16:14.364Z,-11.14
2023-03-20T20:26:53.311Z,-11.15
2023-03-20T20:31:59.983Z,-11.17
2023-03-20T20:42:27.785Z,-11.05
2023-03-20T20:47:32.636Z,-11.09
2023-03-20T20:52:40.945Z,-11.21
2023-03-20T20:57:46.253Z,-11.10
2023-03-20T21:02:50.572Z,-11.09
2023-03-20T21:07:54.687Z,-11.14
2023-03-20T21:12:59.983Z,-11.53
2023-03-20T21:18:03.899Z,-11.18
2023-03-20T21:23:08.483Z,-11.08
2023-03-20T21:28:13.195Z,-11.08
2023-03-20T21:33:17.108Z,-11.13
2023-03-20T21:43:48.177Z,-11.08
2023-03-20T21:49:47.801Z,-11.10
2023-03-20T22:16:36.648Z,-11.08
2023-03-20T22:21:55.979Z,-11.48
2023-03-20T22:38:17.190Z,-11.30
2023-03-20T22:43:26.538Z,-11.25
2023-03-20T22:48:16.503Z,-11.29
2023-03-20T22:53:20.716Z,-11.31
2023-03-20T22:58:24.626Z,-11.32
2023-03-20T23:03:42.513Z,-11.32
2023-03-20T23:08:52.348Z,-11.30
2023-03-20T23:13:59.516Z,-11.28
2023-03-20T23:19:03.342Z,-11.28
2023-03-20T23:24:07.643Z,-11.29
2023-03-20T23:29:12.553Z,-11.30
2023-03-20T23:34:18.104Z,-11.33
2023-03-20T23:39:22.457Z,-11.33
2023-03-20T23:44:26.780Z,-11.34
2023-03-20T23:49:31.069Z,-11.33
2023-03-20T23:54:34.836Z,-11.34
2023-03-20T23:59:39.018Z,-11.32
